createdAt,value
2022-09-22T00:01:21.384Z,99.90
2022-09-22T00:03:52.056Z,99.90
2022-09-22T00:06:26.385Z,99.90
2022-09-22T00:08:57.407Z,99.90
2022-09-22T00:11:30.914Z,99.90
2022-09-22T00:14:01.171Z,99.90
2022-09-22T00:16:36.548Z,99.90
2022-09-22T00:19:08.094Z,99.90
2022-09-22T00:21:35.238Z,99.90
2022-09-22T00:24:03.616Z,99.90
2022-09-22T00:26:31.314Z,99.90
2022-09-22T00:28:58.394Z,99.90
2022-09-22T00:31:26.143Z,99.90
2022-09-22T00:33:54.647Z,99.90
2022-09-22T00:36:25.588Z,99.90
2022-09-22T00:38:54.094Z,99.90
2022-09-22T00:41:24.904Z,99.90
2022-09-22T00:44:26.673Z,99.90
2022-09-22T00:47:31.258Z,99.90
2022-09-22T00:50:09.931Z,99.90
2022-09-22T00:52:47.397Z,99.90
2022-09-22T00:55:23.246Z,99.90
2022-09-22T00:57:54.431Z,99.90
2022-09-22T01:00:21.775Z,99.90
2022-09-22T01:02:53.430Z,99.90
2022-09-22T01:05:22.239Z,99.90
2022-09-22T01:07:49.310Z,99.90
2022-09-22T01:10:16.258Z,99.90
2022-09-22T01:13:06.691Z,99.90
2022-09-22T01:16:00.626Z,99.90
2022-09-22T01:18:51.513Z,99.90
2022-09-22T01:21:33.687Z,99.90
2022-09-22T01:24:21.654Z,99.90
2022-09-22T01:27:08.189Z,99.90
2022-09-22T01:30:06.239Z,99.90
2022-09-22T01:32:50.355Z,99.90
2022-09-22T01:35:49.878Z,99.90
2022-09-22T01:38:38.602Z,99.90
2022-09-22T01:41:19.822Z,99.90
2022-09-22T01:43:57.035Z,99.90
2022-09-22T01:46:44.851Z,99.90
2022-09-22T01:49:14.700Z,99.90
2022-09-22T01:51:49.974Z,99.90
2022-09-22T01:54:24.522Z,99.90
2022-09-22T01:56:58.575Z,99.90
2022-09-22T01:59:30.739Z,99.90
2022-09-22T02:02:04.970Z,99.90
2022-09-22T02:04:39.709Z,99.90
2022-09-22T02:07:10.017Z,99.90
2022-09-22T02:09:39.937Z,99.90
2022-09-22T02:12:06.926Z,99.90
2022-09-22T02:14:34.284Z,99.90
2022-09-22T02:17:02.627Z,99.90
2022-09-22T02:19:36.249Z,99.90
2022-09-22T02:22:05.304Z,99.90
2022-09-22T02:24:41.573Z,99.90
2022-09-22T02:27:14.372Z,99.90
2022-09-22T02:29:45.077Z,99.90
2022-09-22T02:32:17.204Z,99.90
2022-09-22T02:34:46.059Z,99.90
2022-09-22T02:37:24.286Z,99.90
2022-09-22T02:40:31.818Z,99.90
2022-09-22T02:43:24.367Z,99.90
2022-09-22T02:46:11.039Z,99.90
2022-09-22T02:48:43.978Z,99.90
2022-09-22T02:51:11.412Z,99.90
2022-09-22T02:53:38.323Z,99.90
2022-09-22T02:56:05.619Z,99.90
2022-09-22T02:58:32.815Z,99.90
2022-09-22T03:00:59.729Z,99.90
2022-09-22T03:03:26.578Z,99.90
2022-09-22T03:05:53.414Z,99.90
2022-09-22T03:08:20.345Z,99.90
2022-09-22T03:10:47.395Z,99.90
2022-09-22T03:13:16.895Z,99.90
2022-09-22T03:15:45.755Z,99.90
2022-09-22T03:18:13.503Z,99.90
2022-09-22T03:20:40.711Z,99.90
2022-09-22T03:23:08.815Z,99.90
2022-09-22T03:25:35.731Z,99.90
2022-09-22T03:28:03.052Z,99.90
2022-09-22T03:30:31.163Z,99.90
2022-09-22T03:32:58.297Z,99.90
2022-09-22T03:35:25.241Z,99.90
2022-09-22T03:37:53.440Z,99.90
2022-09-22T03:40:22.138Z,99.90
2022-09-22T03:42:49.183Z,99.90
2022-09-22T03:45:16.475Z,99.90
2022-09-22T03:47:43.349Z,99.90
2022-09-22T03:50:10.531Z,99.90
2022-09-22T03:52:40.057Z,99.90
2022-09-22T03:55:07.723Z,99.90
2022-09-22T03:57:34.544Z,99.90
2022-09-22T04:00:01.618Z,99.90
2022-09-22T04:02:48.475Z,99.90
2022-09-22T04:05:15.497Z,99.90
2022-09-22T04:07:43.448Z,99.90
2022-09-22T04:10:10.306Z,99.90
2022-09-22T04:12:37.362Z,99.90
2022-09-22T04:15:04.922Z,99.90
2022-09-22T04:17:31.939Z,99.90
2022-09-22T04:19:59.468Z,99.90
2022-09-22T04:22:26.270Z,99.90
2022-09-22T04:24:53.138Z,99.90
2022-09-22T04:27:21.113Z,99.90
2022-09-22T04:29:48.738Z,99.90
2022-09-22T04:32:16.506Z,99.90
2022-09-22T04:34:43.350Z,99.90
2022-09-22T04:37:11.828Z,99.90
2022-09-22T04:39:38.881Z,99.90
2022-09-22T04:42:06.054Z,99.90
2022-09-22T04:44:35.504Z,99.90
2022-09-22T04:47:03.138Z,99.90
2022-09-22T04:49:29.997Z,99.90
2022-09-22T04:51:57.463Z,99.90
2022-09-22T04:54:24.559Z,99.90
2022-09-22T04:56:51.465Z,99.90
2022-09-22T04:59:19.468Z,99.90
2022-09-22T05:01:46.502Z,99.90
2022-09-22T05:04:13.512Z,99.90
2022-09-22T05:06:41.709Z,99.90
2022-09-22T05:09:08.443Z,99.90
2022-09-22T05:11:35.300Z,99.90
2022-09-22T05:14:02.668Z,99.90
2022-09-22T05:16:32.387Z,99.90
2022-09-22T05:18:59.373Z,99.90
2022-09-22T05:21:26.906Z,99.90
2022-09-22T05:23:55.254Z,99.90
2022-09-22T05:26:22.146Z,99.90
2022-09-22T05:28:51.040Z,99.90
2022-09-22T05:31:18.156Z,99.90
2022-09-22T05:33:45.244Z,99.90
2022-09-22T05:36:12.376Z,99.90
2022-09-22T05:38:39.234Z,99.90
2022-09-22T05:41:06.123Z,99.90
2022-09-22T05:43:33.175Z,99.90
2022-09-22T05:46:00.459Z,99.90
2022-09-22T05:48:31.192Z,99.90
2022-09-22T05:50:58.795Z,99.90
2022-09-22T05:53:25.689Z,99.90
2022-09-22T05:55:52.599Z,99.90
2022-09-22T05:58:20.602Z,99.90
2022-09-22T06:00:47.614Z,99.90
2022-09-22T06:03:14.606Z,99.90
2022-09-22T06:05:41.914Z,99.90
2022-09-22T06:08:08.860Z,99.90
2022-09-22T06:10:37.535Z,99.90
2022-09-22T06:13:06.773Z,99.90
2022-09-22T06:15:36.487Z,99.90
2022-09-22T06:18:07.521Z,99.90
2022-09-22T06:20:35.664Z,99.90
2022-09-22T06:23:02.854Z,99.90
2022-09-22T06:25:31.118Z,99.90
2022-09-22T06:28:00.664Z,99.90
2022-09-22T06:30:27.886Z,99.90
2022-09-22T06:32:58.512Z,99.90
2022-09-22T06:35:26.001Z,99.90
2022-09-22T06:37:57.150Z,99.90
2022-09-22T06:40:25.903Z,99.90
2022-09-22T06:43:11.871Z,99.90
2022-09-22T06:45:41.093Z,99.90
2022-09-22T06:48:10.690Z,99.90
2022-09-22T06:50:38.635Z,99.90
2022-09-22T06:53:08.027Z,99.90
2022-09-22T06:55:37.155Z,99.90
2022-09-22T06:58:04.494Z,99.90
2022-09-22T07:00:33.171Z,99.90
2022-09-22T07:03:22.638Z,99.90
2022-09-22T07:05:58.306Z,99.90
2022-09-22T07:08:25.987Z,99.90
2022-09-22T07:10:58.339Z,99.90
2022-09-22T07:13:27.727Z,99.90
2022-09-22T07:16:03.085Z,99.90
2022-09-22T07:18:30.940Z,99.90
2022-09-22T07:21:06.984Z,99.90
2022-09-22T07:23:37.406Z,99.90
2022-09-22T07:26:09.991Z,99.90
2022-09-22T07:28:37.617Z,99.90
2022-09-22T07:31:11.062Z,99.90
2022-09-22T07:33:40.187Z,99.90
2022-09-22T07:36:18.673Z,99.90
2022-09-22T07:38:49.156Z,99.90
2022-09-22T07:41:18.993Z,99.90
2022-09-22T07:43:48.695Z,99.90
2022-09-22T07:46:15.609Z,99.90
2022-09-22T07:48:42.408Z,99.90
2022-09-22T07:51:18.294Z,99.90
2022-09-22T07:53:47.032Z,99.90
2022-09-22T07:56:16.229Z,99.90
2022-09-22T07:58:51.112Z,99.90
2022-09-22T08:01:23.143Z,99.90
2022-09-22T08:03:50.900Z,99.90
2022-09-22T08:06:23.575Z,99.90
2022-09-22T08:08:55.318Z,99.90
2022-09-22T08:11:27.891Z,99.90
2022-09-22T08:13:57.740Z,99.90
2022-09-22T08:16:28.306Z,99.90
2022-09-22T08:18:59.843Z,99.90
2022-09-22T08:21:32.872Z,99.90
2022-09-22T08:24:00.922Z,99.90
2022-09-22T08:26:27.794Z,99.90
2022-09-22T08:28:56.777Z,99.90
2022-09-22T08:31:26.268Z,99.90
2022-09-22T08:33:54.908Z,99.90
2022-09-22T08:36:23.988Z,99.90
2022-09-22T08:38:51.070Z,99.90
2022-09-22T08:41:38.135Z,99.90
2022-09-22T08:44:10.752Z,99.90
2022-09-22T08:46:44.135Z,99.90
2022-09-22T08:49:32.690Z,99.90
2022-09-22T08:52:07.007Z,99.90
2022-09-22T08:54:35.401Z,99.90
2022-09-22T08:57:29.127Z,99.90
2022-09-22T09:00:07.149Z,99.90
2022-09-22T09:02:38.135Z,99.80
2022-09-22T09:05:46.189Z,99.50
2022-09-22T09:08:40.336Z,99.40
2022-09-22T09:11:38.163Z,99.60
2022-09-22T09:14:12.183Z,99.30
2022-09-22T09:17:02.191Z,99.60
2022-09-22T09:19:50.438Z,98.90
2022-09-22T09:22:27.550Z,98.40
2022-09-22T09:28:04.795Z,98.20
2022-09-22T09:30:42.245Z,97.30
2022-09-22T09:33:28.591Z,96.90
2022-09-22T09:35:56.144Z,97.20
2022-09-22T09:38:30.435Z,96.70
2022-09-22T09:41:15.962Z,96.00
2022-09-22T09:43:45.634Z,96.20
2022-09-22T09:46:34.570Z,95.90
2022-09-22T09:49:06.285Z,95.60
2022-09-22T09:51:40.838Z,95.50
2022-09-22T09:54:13.159Z,95.60
2022-09-22T09:57:13.304Z,95.70
2022-09-22T10:00:00.456Z,95.30
2022-09-22T10:02:33.347Z,95.00
2022-09-22T10:05:07.767Z,95.50
2022-09-22T10:07:42.103Z,94.90
2022-09-22T10:10:35.788Z,95.30
2022-09-22T10:13:05.746Z,95.00
2022-09-22T10:15:38.800Z,95.10
2022-09-22T10:18:36.351Z,95.20
2022-09-22T10:21:09.331Z,94.80
2022-09-22T10:23:36.291Z,94.70
2022-09-22T10:26:32.070Z,94.90
2022-09-22T10:29:19.428Z,94.70
2022-09-22T10:32:14.916Z,94.90
2022-09-22T10:34:51.114Z,95.00
2022-09-22T10:37:25.019Z,94.60
2022-09-22T10:39:53.032Z,94.50
2022-09-22T10:42:45.606Z,94.60
2022-09-22T10:45:19.207Z,94.30
2022-09-22T10:48:03.807Z,94.30
2022-09-22T10:51:26.438Z,94.40
2022-09-22T10:54:14.944Z,94.20
2022-09-22T10:56:47.098Z,94.30
2022-09-22T10:59:45.384Z,94.20
2022-09-22T11:02:28.504Z,94.00
2022-09-22T11:05:44.641Z,94.00
2022-09-22T11:08:32.656Z,93.70
2022-09-22T11:11:33.584Z,93.70
2022-09-22T11:14:27.658Z,93.40
2022-09-22T11:17:18.606Z,93.30
2022-09-22T11:20:12.638Z,93.30
2022-09-22T11:22:58.246Z,93.50
2022-09-22T11:25:40.232Z,93.60
2022-09-22T11:28:47.885Z,93.50
2022-09-22T11:31:37.613Z,93.40
2022-09-22T11:34:16.466Z,93.40
2022-09-22T11:37:01.524Z,93.50
2022-09-22T11:39:54.875Z,93.00
2022-09-22T11:42:37.253Z,92.90
2022-09-22T11:45:16.183Z,93.00
2022-09-22T11:48:05.829Z,93.20
2022-09-22T11:51:00.250Z,93.10
2022-09-22T11:53:36.563Z,93.20
2022-09-22T11:56:31.803Z,93.30
2022-09-22T11:59:04.493Z,93.10
2022-09-22T12:01:37.572Z,93.10
2022-09-22T12:04:21.482Z,93.20
2022-09-22T12:06:51.059Z,93.20
2022-09-22T12:09:41.721Z,92.50
2022-09-22T12:12:15.070Z,92.40
2022-09-22T12:14:42.536Z,92.20
2022-09-22T12:17:27.821Z,92.40
2022-09-22T12:20:13.393Z,92.50
2022-09-22T12:23:04.621Z,92.40
2022-09-22T12:25:48.677Z,92.70
2022-09-22T12:28:18.568Z,92.60
2022-09-22T12:30:58.640Z,92.90
2022-09-22T12:33:27.998Z,93.00
2022-09-22T12:35:56.811Z,93.00
2022-09-22T12:38:25.003Z,93.00
2022-09-22T12:40:55.096Z,93.10
2022-09-22T12:43:23.979Z,92.90
2022-09-22T12:45:53.545Z,92.90
2022-09-22T12:48:36.535Z,92.80
2022-09-22T12:51:25.344Z,93.00
2022-09-22T12:54:12.597Z,93.10
2022-09-22T12:56:53.954Z,92.70
2022-09-22T12:59:36.347Z,92.70
2022-09-22T13:02:16.069Z,93.00
2022-09-22T13:05:24.658Z,92.50
2022-09-22T13:07:55.861Z,92.40
2022-09-22T13:10:26.553Z,92.50
2022-09-22T13:13:12.743Z,92.40
2022-09-22T13:15:51.856Z,92.30
2022-09-22T13:18:39.166Z,92.60
2022-09-22T13:21:15.087Z,92.50
2022-09-22T13:23:50.818Z,92.50
2022-09-22T13:26:28.524Z,92.60
2022-09-22T13:29:15.947Z,92.80
2022-09-22T13:31:54.408Z,92.50
2022-09-22T13:34:31.083Z,92.50
2022-09-22T13:37:20.341Z,92.70
2022-09-22T13:39:53.405Z,92.90
2022-09-22T13:42:32.895Z,92.90
2022-09-22T13:45:24.009Z,93.10
2022-09-22T13:47:52.997Z,93.30
2022-09-22T13:50:22.666Z,93.20
2022-09-22T13:52:51.278Z,93.40
2022-09-22T13:55:37.553Z,93.40
2022-09-22T13:58:09.051Z,93.50
2022-09-22T14:01:12.767Z,93.40
2022-09-22T14:03:42.094Z,93.60
2022-09-22T14:06:14.096Z,93.50
2022-09-22T14:08:42.619Z,93.50
2022-09-22T14:11:21.744Z,93.50
2022-09-22T14:13:54.910Z,93.80
2022-09-22T14:16:45.181Z,93.60
2022-09-22T14:19:20.787Z,93.70
2022-09-22T14:21:58.230Z,93.80
2022-09-22T14:24:26.581Z,94.00
2022-09-22T14:26:53.414Z,93.90
2022-09-22T14:29:28.070Z,93.80
2022-09-22T14:32:32.745Z,93.90
2022-09-22T14:35:03.950Z,94.10
2022-09-22T14:37:41.985Z,94.20
2022-09-22T14:40:16.877Z,94.00
2022-09-22T14:42:56.555Z,93.80
2022-09-22T14:45:26.239Z,94.00
2022-09-22T14:48:11.891Z,94.00
2022-09-22T14:50:46.387Z,94.00
2022-09-22T14:53:24.146Z,93.80
2022-09-22T14:55:54.617Z,94.10
2022-09-22T14:58:27.078Z,93.90
2022-09-22T15:01:19.217Z,94.00
2022-09-22T15:03:54.742Z,93.90
2022-09-22T15:06:21.937Z,94.00
2022-09-22T15:08:52.051Z,94.10
2022-09-22T15:11:19.223Z,94.10
2022-09-22T15:13:50.833Z,94.10
2022-09-22T15:16:39.663Z,94.20
2022-09-22T15:19:11.889Z,94.40
2022-09-22T15:21:47.790Z,94.30
2022-09-22T15:24:21.130Z,94.30
2022-09-22T15:26:48.044Z,94.40
2022-09-22T15:29:17.371Z,94.50
2022-09-22T15:31:44.329Z,94.50
2022-09-22T15:34:13.931Z,94.70
2022-09-22T15:36:46.809Z,94.40
2022-09-22T15:39:21.792Z,94.50
2022-09-22T15:41:49.056Z,94.60
2022-09-22T15:44:16.725Z,94.60
2022-09-22T15:46:52.638Z,94.60
2022-09-22T15:49:26.143Z,94.60
2022-09-22T15:51:56.049Z,94.80
2022-09-22T15:54:26.159Z,94.80
2022-09-22T15:56:55.401Z,94.90
2022-09-22T15:59:26.742Z,95.00
2022-09-22T16:01:56.623Z,94.70
2022-09-22T16:04:23.779Z,94.80
2022-09-22T16:06:55.527Z,94.80
2022-09-22T16:09:22.553Z,94.60
2022-09-22T16:11:49.651Z,94.60
2022-09-22T16:14:16.610Z,94.70
2022-09-22T16:16:43.549Z,94.60
2022-09-22T16:19:10.584Z,94.60
2022-09-22T16:21:41.238Z,94.50
2022-09-22T16:24:10.806Z,94.50
2022-09-22T16:26:39.818Z,94.70
2022-09-22T16:29:08.095Z,94.50
2022-09-22T16:31:36.270Z,94.70
2022-09-22T16:34:05.728Z,94.70
2022-09-22T16:36:34.770Z,94.60
2022-09-22T16:39:02.769Z,94.70
2022-09-22T16:41:32.519Z,94.70
2022-09-22T16:44:00.500Z,94.70
2022-09-22T16:46:29.818Z,94.70
2022-09-22T16:49:05.608Z,94.80
2022-09-22T16:51:35.524Z,94.80
2022-09-22T16:54:05.947Z,94.80
2022-09-22T16:56:34.625Z,94.70
2022-09-22T16:59:01.832Z,94.80
2022-09-22T17:01:31.315Z,94.70
2022-09-22T17:03:58.678Z,94.80
2022-09-22T17:06:26.562Z,94.90
2022-09-22T17:08:57.031Z,94.90
2022-09-22T17:11:30.107Z,94.90
2022-09-22T17:14:03.062Z,94.90
2022-09-22T17:16:38.472Z,94.90
2022-09-22T17:19:11.725Z,95.00
2022-09-22T17:21:40.385Z,94.80
2022-09-22T17:24:09.296Z,94.80
2022-09-22T17:26:41.930Z,95.00
2022-09-22T17:29:09.835Z,94.90
2022-09-22T17:31:36.838Z,95.00
2022-09-22T17:34:04.898Z,95.10
2022-09-22T17:36:31.959Z,95.10
2022-09-22T17:39:00.787Z,95.20
2022-09-22T17:41:31.500Z,95.20
2022-09-22T17:44:01.333Z,95.60
2022-09-22T17:46:33.402Z,95.20
2022-09-22T17:49:21.012Z,95.30
2022-09-22T17:52:08.325Z,95.50
2022-09-22T17:55:00.802Z,95.30
2022-09-22T17:57:30.043Z,95.30
2022-09-22T17:59:57.901Z,95.40
2022-09-22T18:02:30.113Z,95.30
2022-09-22T18:04:57.249Z,95.40
2022-09-22T18:07:26.978Z,95.50
2022-09-22T18:09:55.558Z,95.40
2022-09-22T18:12:25.094Z,95.60
2022-09-22T18:14:55.374Z,95.50
2022-09-22T18:17:26.403Z,95.50
2022-09-22T18:19:54.521Z,95.50
2022-09-22T18:22:22.149Z,95.50
2022-09-22T18:24:50.112Z,95.40
2022-09-22T18:27:19.551Z,95.60
2022-09-22T18:29:50.005Z,95.50
2022-09-22T18:32:19.995Z,95.50
2022-09-22T18:34:48.010Z,95.60
2022-09-22T18:37:15.814Z,95.60
2022-09-22T18:39:45.619Z,95.60
2022-09-22T18:42:13.748Z,95.70
2022-09-22T18:44:44.360Z,95.60
2022-09-22T18:47:18.587Z,95.70
2022-09-22T18:49:48.249Z,95.80
2022-09-22T18:52:22.927Z,95.60
2022-09-22T18:54:53.266Z,95.70
2022-09-22T18:57:21.916Z,95.70
2022-09-22T18:59:51.005Z,95.60
2022-09-22T19:02:22.522Z,95.70
2022-09-22T19:04:51.228Z,95.70
2022-09-22T19:07:41.994Z,95.60
2022-09-22T19:10:11.943Z,95.70
2022-09-22T19:12:42.678Z,95.70
2022-09-22T19:15:14.426Z,95.80
2022-09-22T19:17:45.841Z,95.90
2022-09-22T19:20:22.831Z,96.00
2022-09-22T19:22:52.502Z,96.20
2022-09-22T19:25:21.654Z,96.40
2022-09-22T19:27:53.853Z,96.60
2022-09-22T19:30:23.953Z,96.70
2022-09-22T19:32:53.416Z,96.90
2022-09-22T19:35:20.784Z,97.00
2022-09-22T19:37:48.076Z,97.00
2022-09-22T19:40:18.892Z,97.10
2022-09-22T19:42:47.189Z,97.10
2022-09-22T19:45:14.651Z,97.00
2022-09-22T19:47:41.663Z,97.00
2022-09-22T19:50:09.503Z,96.90
2022-09-22T19:52:37.693Z,96.90
2022-09-22T19:55:11.804Z,96.90
2022-09-22T19:57:41.653Z,96.90
2022-09-22T20:00:17.688Z,97.00
2022-09-22T20:02:45.297Z,97.00
2022-09-22T20:05:22.186Z,97.10
2022-09-22T20:07:49.828Z,97.30
2022-09-22T20:10:18.964Z,97.30
2022-09-22T20:12:46.163Z,97.50
2022-09-22T20:15:18.102Z,97.50
2022-09-22T20:17:46.899Z,97.60
2022-09-22T20:20:22.645Z,97.50
2022-09-22T20:23:00.283Z,97.50
2022-09-22T20:25:30.427Z,97.60
2022-09-22T20:27:57.548Z,97.60
2022-09-22T20:30:29.164Z,97.60
2022-09-22T20:32:56.055Z,97.60
2022-09-22T20:35:22.894Z,97.60
2022-09-22T20:37:51.494Z,97.50
2022-09-22T20:40:21.220Z,97.40
2022-09-22T20:42:50.788Z,97.40
2022-09-22T20:45:20.864Z,97.40
2022-09-22T20:47:49.208Z,97.20
2022-09-22T20:50:16.188Z,97.20
2022-09-22T20:52:43.014Z,97.20
2022-09-22T20:55:11.090Z,97.10
2022-09-22T20:57:38.699Z,97.20
2022-09-22T21:00:06.452Z,97.20
2022-09-22T21:02:33.578Z,97.20
2022-09-22T21:05:00.587Z,97.20
2022-09-22T21:07:27.453Z,97.20
2022-09-22T21:10:12.732Z,97.20
2022-09-22T21:12:40.443Z,97.10
2022-09-22T21:15:08.074Z,97.10
2022-09-22T21:17:41.009Z,97.10
2022-09-22T21:20:10.606Z,97.10
2022-09-22T21:22:38.888Z,97.10
2022-09-22T21:25:05.737Z,97.10
2022-09-22T21:27:32.627Z,97.10
2022-09-22T21:29:59.474Z,97.00
2022-09-22T21:32:26.302Z,97.00
2022-09-22T21:34:53.093Z,97.00
2022-09-22T21:37:20.993Z,96.90
2022-09-22T21:39:48.019Z,96.90
2022-09-22T21:42:14.849Z,96.80
2022-09-22T21:44:42.210Z,96.90
2022-09-22T21:47:09.106Z,97.00
2022-09-22T21:49:36.158Z,96.90
2022-09-22T21:52:03.217Z,96.90
2022-09-22T21:54:31.087Z,96.80
2022-09-22T21:56:57.959Z,96.70
2022-09-22T21:59:24.814Z,96.60
2022-09-22T22:01:51.694Z,96.70
2022-09-22T22:04:19.054Z,96.70
2022-09-22T22:06:46.477Z,96.70
2022-09-22T22:09:19.317Z,96.70
2022-09-22T22:11:48.859Z,96.80
2022-09-22T22:14:18.390Z,96.70
2022-09-22T22:16:47.692Z,96.80
2022-09-22T22:19:17.441Z,96.80
2022-09-22T22:21:44.819Z,96.80
2022-09-22T22:24:19.603Z,96.90
2022-09-22T22:26:51.928Z,97.10
2022-09-22T22:29:20.448Z,96.90
2022-09-22T22:31:49.100Z,96.90
2022-09-22T22:34:21.623Z,96.90
2022-09-22T22:36:49.478Z,97.00
2022-09-22T22:39:16.622Z,97.00
2022-09-22T22:41:44.485Z,96.90
2022-09-22T22:44:16.305Z,96.90
2022-09-22T22:46:43.962Z,97.00
2022-09-22T22:49:11.640Z,97.00
2022-09-22T22:51:43.248Z,97.00
2022-09-22T22:54:11.838Z,97.20
2022-09-22T22:56:41.977Z,97.30
2022-09-22T22:59:10.066Z,97.30
2022-09-22T23:01:37.364Z,97.60
2022-09-22T23:04:07.614Z,97.50
2022-09-22T23:06:37.675Z,97.70
2022-09-22T23:09:06.859Z,98.00
2022-09-22T23:11:37.469Z,98.00
2022-09-22T23:14:06.863Z,98.20
2022-09-22T23:16:43.328Z,98.30
2022-09-22T23:19:13.053Z,98.20
2022-09-22T23:21:40.679Z,98.30
2022-09-22T23:24:08.690Z,98.40
2022-09-22T23:26:37.302Z,98.50
2022-09-22T23:29:05.037Z,98.60
2022-09-22T23:31:32.218Z,98.50
2022-09-22T23:33:59.469Z,98.30
2022-09-22T23:36:27.900Z,98.20
2022-09-22T23:39:03.976Z,98.10
2022-09-22T23:41:36.196Z,98.00
2022-09-22T23:44:05.840Z,98.20
2022-09-22T23:46:33.982Z,97.90
2022-09-22T23:49:00.795Z,98.20
2022-09-22T23:51:28.117Z,97.90
2022-09-22T23:53:56.543Z,97.70
2022-09-22T23:56:24.031Z,97.50
2022-09-22T23:58:51.791Z,97.40
